home | artists | genres | years | calendar | countries | playbacks | last played

Records of idm

overviewpopular tracks

Artist Record Year Power Played Added Last Played
The Future Sound Of London We Have Explosive 1997 0.0 0 1998-10-05 Never
Autechre Amber 1994 2.0 38 1998-11-05 2020-04-14
Autechre Tri Repetae 1995 0.0 4 1998-11-05 2007-11-29
Autechre Incunabula 1993 2.0 58 1998-11-05 2020-04-13
Plaid Not For Threes 1998 0.0 3 1999-01-05 2014-01-15
Solar X Little Pretty Automatic 1999 2.1 29 1999-11-05 2015-02-21
various Artefacts 1999 2.0 9 1999-11-05 2011-04-25
Bochum Welt Feelings On A Screen 1997 6.0 67 1999-11-05 2015-05-07
Ambidextrous Soundescape 1998 0.0 0 2000-01-05 Never
Lassigue Bendthaus Pop Artificielle 1998 11.0 71 2000-04-05 2021-04-07
Aphex Twin Richard D. James Album 1996 4.0 32 2000-04-05 2017-08-08
Autechre CichliSuite 1997 0.0 1 2000-04-05 2005-08-22
Aphex Twin Classics 1995 0.0 3 2000-04-05 2008-09-26
Aphex Twin I Care Because You Do 1995 0.0 2 2000-04-05 2008-09-26
Plaid Peel Session 1998 0.0 0 2000-04-05 Never
Spacetime Continuum Emit Ecaps 1996 0.0 0 2000-04-05 Never
Solar X Kalashnikoff Bullet Bath 1997 0.0 1 2000-04-05 2007-01-10
Autechre Envane 1997 0.0 0 2000-04-05 Never
Autechre Anti 1994 0.0 0 2000-04-05 Never
Aphex Twin Words & Music 1994 0.0 0 2000-04-05 Never
Autechre We R Are Why 1996 0.0 0 2000-04-05 Never
Autechre Basscad 1994 0.0 0 2000-04-05 Never
various We Are Reasonable People 1998 1.2 36 2000-04-05 2009-08-05
Aphex Twin Ventolin 1995 0.0 1 2000-04-05 2006-11-10
Aphex Twin Donkey Rhubarb 1995 3.0 26 2000-04-05 2017-08-08
Autechre Chiastic Slide 1997 0.0 0 2000-04-05 Never
Aphex Twin On Remixes 1993 0.0 0 2000-04-05 Never
Autechre EP7 1999 0.0 0 2000-04-05 Never
Autechre LP5 1998 0.1 8 2000-04-05 2008-02-01
Autechre Anvil Vapre 1995 0.0 0 2000-04-05 Never
Gimmik Load Error 1999 7.0 33 2000-04-05 2016-01-18
Autechre Peel Session 1999 0.0 0 2000-04-05 Never
Autechre Garbage 1995 0.0 0 2000-04-05 Never
Aphex Twin On 1993 1.0 8 2000-04-05 2017-07-28
mu-Ziq Lunatic Harness 1997 2.0 12 2000-04-05 2012-07-14
Novel 23 Melodies Of Childhood For Advanced Imagination 1999 7.0 34 2000-04-05 2020-06-07
Mouse On Mars Vulvaland 1994 0.0 0 2000-05-05 Never
Solar X X-Rated 1997 0.1 12 2000-05-05 2007-03-23
Mouse On Mars Iaora Tahiti 1995 0.0 13 2000-08-31 2005-05-18
Novel 23 Biogenes Resources 1997 0.0 16 2000-08-31 2007-01-08
Multiplex Area To Area 2000 0.0 1 2000-08-31 2007-01-04
Gimmik Rythmus Der Stadt 2001 8.1 35 2000-08-31 2016-08-11
Mouse On Mars Idiology 2001 0.0 1 2000-08-31 2007-11-23
Mouse On Mars Audioditacker 1997 0.0 1 2000-08-31 2006-11-21
Mouse On Mars Diskdusk 1999 0.0 0 2000-08-31 Never
Mouse On Mars Instrumentals 1997 0.0 0 2000-08-31 Never
Mouse On Mars Distoria 1999 0.0 1 2000-08-31 2007-01-05
Mouse On Mars Glam 1998 0.0 2 2000-08-31 2007-11-30
Mouse On Mars Niun Niggung 1999 0.0 1 2000-08-31 2007-01-05
Mouse On Mars Pickly Dred Rhizzoms 1999 0.0 0 2000-08-31 Never
Fizzarum Microphorus 2000 1.0 7 2001-01-31 2008-05-10
Fizzarum Monochrome Plural 2000 3.0 16 2001-01-31 2015-06-27
EU Eu_Soft 2000 3.0 25 2001-03-05 2012-08-30
various Neurokinetic (Analog) 2000 0.0 4 2001-04-05 2008-05-10
various Neurokinetic (Digital) 2000 0.0 7 2001-04-05 2008-05-10
Pete Namlook & Higher Intelligence Agency S.H.A.D.O. 1997 0.0 0 2001-06-05 Never
Gimmik Slow Motion Process 2001 2.1 21 2001-08-31 2011-06-03
Múm Yesterday Was Dramatic - Today Is Ok 2001 0.0 0 2001-08-31 Never
Phonem Hydro Electric 2001 0.0 19 2001-09-01 2007-01-09
Andre Estermann Balloon 2001 4.0 44 2001-09-05 2012-07-14
Telefon Tel Aviv Fairenheit Fair Enough 2001 5.0 31 2001-11-05 2014-09-17
Boards Of Canada Twoism 1996 0.0 1 2001-11-05 2006-06-20
Abfahrt Hinwil Logatech 2001 0.0 40 2001-12-05 2009-06-14
Aphex Twin Drukqs 2001 6.1 66 2001-12-05 2017-08-08
Ambidextrous & Novel 23 Cross Split 2001 4.0 13 2002-01-05 2014-09-27
Beefcake Coincidentia Oppositorum 2000 3.2 28 2002-02-05 2010-04-02
Bola Fyuti 2001 1.2 14 2002-03-05 2010-01-21
I Am Robot And Proud The Catch 2001 7.0 32 2002-03-05 2018-02-20
I Am Robot And Proud I Am Robot And Proud 2001 7.1 27 2002-03-05 2019-07-08
Crunch 1 2001 0.0 0 2002-04-05 Never
Monolake Gravity 2000 0.0 6 2002-05-05 2010-08-03
Supremus Plastice Traffic Plan 2002 3.0 27 2002-05-05 2009-08-04
Monolake Cinemascope 2001 0.0 0 2002-05-05 Never
Solar Fields Reflective Frequencies 2001 4.0 12 2002-05-05 2016-08-16
various Выход В Город Два 2001 0.0 0 2002-05-05 Never
various Blue Skied An' Clear 2002 19.0 119 2002-05-05 2017-03-25
various American Breakbeat Rebuilt 2002 3.0 10 2002-05-05 2014-09-17
mu-Ziq Urmur Bile Trax, Vol. 1 & 2 1997 0.0 0 2002-06-05 Never
mu-Ziq Tango N' Vectif 1993 1.0 5 2002-06-05 2008-03-01
Ambidextrous Post-pop Workshop 2002 0.0 0 2003-03-19 Never
Console Rocket In The Pocket 2000 2.0 8 2003-04-25 2008-03-31
Pellarin Tangible Abstractions 2002 0.0 13 2003-04-25 2007-10-19
Apparat Duplex 2003 1.0 6 2003-05-21 2007-11-23
Bola Soup 2003 1.0 5 2003-05-21 2010-01-21
Karsten Pflum Tracks 2002 8.0 56 2003-05-21 2020-12-23
Monolake Momentum 2003 1.0 19 2003-05-21 2009-07-23
Koordinate Of Wonders Koordinate Of Wonders 2003 1.0 16 2003-08-05 2010-05-18
Sense Learning To Be 2003 7.0 43 2003-08-05 2016-11-12
Arovane Minth 2003 1.0 3 2003-10-01 2015-04-19
LFO Sheath 2003 0.0 0 2003-10-01 Never
Lusine Condensed 2003 0.0 1 2003-10-01 2007-11-24
Novel 23 Architectural Effects 2003 1.0 4 2003-10-01 2010-05-18
Plaid Spokes 2003 0.0 0 2003-10-01 Never
Autechre Confield 2001 0.0 0 2003-10-05 Never
Abfahrt Hinwil Links Berge Rechts Seen 2002 15.0 189 2003-10-05 2021-03-11
Casino vs. Japan Whole Numbers Play The Basics 2002 4.0 31 2003-11-02 2010-11-05
Gimmik Back To Basics 2003 11.1 121 2003-11-02 2017-03-27
Isan Clockwork Menagerie 2003 4.0 10 2003-11-02 2017-03-26
Murcof Martes 2002 0.0 0 2003-11-02 Never
Nikakoi Sestrichka 2002 5.0 28 2003-11-02 2016-08-10
Nikakoi Shentimental 2003 13.0 119 2003-11-02 2019-04-27
n.ln Astronomy For Children 2004 0.0 0 2004-04-10 Never
Telefon Tel Aviv Map Of What Is Effortless 2004 4.0 24 2004-04-10 2016-01-18
Vizion Sinescape.Embryo 2003 1.0 3 2004-04-10 2008-10-07
Jetone Autumnmonia 2000 1.0 28 2004-04-14 2015-08-07
Jake Mandell Quondam Current 2000 0.0 1 2004-04-18 2007-01-08
Jake Mandell Love Songs for Machines 2001 0.0 19 2004-04-18 2007-01-10
Mouse On Mars Agit Itter It It 2002 0.0 0 2004-04-18 Never
Esem Enveloped 2002 3.1 46 2004-04-19 2008-08-07
Jello Chamchimzee 2002 0.1 4 2004-04-19 2008-03-27
Softland One Is A Very Small Crowd 2003 0.0 0 2004-04-21 Never
Herrmann & Kleine Our Noise 2001 7.0 46 2004-04-22 2016-08-10
Lackluster A Lackluster Remixer 2002 1.0 19 2004-04-22 2007-05-26
Manual Ascend 2002 1.1 20 2004-04-23 2012-01-03
Digitonal 23 Things Fall Apart 2002 3.0 21 2004-05-06 2015-04-18
Isan Lucky Cat 2001 0.0 0 2004-05-06 Never
Kylian Lappi Inzoo 2004 3.0 9 2004-05-06 2016-11-16
Mr. Projectile Pug Times 2001 1.1 10 2004-05-06 2012-12-07
Proem Socially Inept 2004 1.0 4 2004-05-06 2007-09-23
Syndrone Salmataxia 2004 0.0 0 2004-05-06 Never
Electroserge Whispertime 2003 0.0 0 2004-05-27 Never
Lazyfish Vortex & Please-126 2000 0.0 0 2004-05-27 Never
various Electraglide 2001 0.0 1 2004-05-27 2007-05-14
various Aquarium 2004 0.0 0 2004-05-27 Never
d'Arcangelo Broken Toys' Corner 2002 0.0 0 2004-05-28 Never
Lackluster Wrapping 2002 0.0 2 2004-05-28 2007-04-30
Proem No Carrier 2002 2.0 11 2004-05-28 2015-09-01
Autechre Gantz Graf 2002 0.0 0 2004-06-12 Never
Takeshi Muto Expect More From A Past Life 2000 0.0 0 2004-06-12 Never
Four Tet My Angel Rocks Back And Forth 2004 0.0 16 2004-07-21 2008-02-14
Ambidextrous & Grundik + Slava Split 2003 0.0 0 2004-09-05 Never
Novel 23 & Vesna A Red Agents Action Split 2002 1.0 3 2004-09-05 2007-11-30
Solar X Chanel No. 303 2001 3.0 10 2004-09-05 2017-05-25
Vesna Vesna 2001 8.0 76 2004-09-05 2015-07-12
Toog Lou Etendue 2004 2.0 23 2004-10-27 2008-09-20
Bola Gnayse 2004 1.0 9 2004-12-02 2008-03-21
Landau Thepicompromise 2004 2.0 23 2004-12-02 2012-02-27
Lusine Serial Hodgepodge 2004 0.0 0 2004-12-02 Never
Ochre Audiomicrodevice 2001 0.0 30 2004-12-02 2006-08-31
Stereo Modus Ex Tempore 2003 2.0 22 2004-12-02 2009-08-05
various Everything Is Green 2004 10.0 72 2004-12-02 2017-03-27
Dunaewsky 69 Contiguity 2004 1.0 8 2004-12-23 2010-05-23
Galaktlan Sinine Platoo 2002 2.0 13 2004-12-23 2008-04-20
Maps And Diagrams Polytuft-tech 2003 9.1 49 2004-12-24 2015-11-24
Secret Frequency Crew Forest Of The Echo Downs 2004 0.1 3 2004-12-24 2008-04-04
Zegunder Distant Birds Thought They Were Leaves 2004 0.0 0 2004-12-30 Never
Aus Kangaroo Note 2004 0.0 31 2005-01-16 2008-05-30
Digitonal The Centre Cannot Hold 2004 0.0 0 2005-01-16 Never
Nautilis Sketches 2002 0.0 0 2005-01-16 Never
Keef Baker The Widnes Years 2004 0.0 0 2005-01-29 Never
Marshall Watson The Time Was Later Than He Expected 2004 0.2 13 2005-01-29 2008-04-09
TBA Georgia Is Like Spiritual Tokyo 2003 1.2 21 2005-01-29 2009-07-23
Mouse On Mars Radical Connector 2004 0.0 2 2005-04-19 2007-08-15
Multiplex Pinghaus Frequencies 2002 5.0 70 2005-05-20 2017-03-28
Plod FFWD 2002 0.0 0 2005-05-20 Never
Boards Of Canada Music Has The Right To Children 1997 2.0 17 2005-05-21 2009-07-23
The Future Sound Of London My Kingdom 1996 0.0 10 2005-05-21 2005-07-15
various Rump Comp Volume One 2005 0.2 21 2005-05-21 2008-08-07
Quinoline Yellow Dol-Goy Assist 2005 0.0 0 2005-07-15 Never
Seestrings Oh My God, Am I Here All Alone 2004 3.0 28 2005-07-15 2008-10-07
The Flashbulb Kirlian Selections 2005 0.0 5 2005-07-15 2007-11-28
various Intelligent Toys 2 2004 7.1 116 2005-07-15 2016-01-07
Monolake Polygon_Cities 2005 1.0 27 2005-08-22 2011-12-26
Praveen Backed By Spirits 2005 0.0 51 2005-08-22 2007-09-13
Adam Freeland Tectonics 2000 0.0 3 2005-09-11 2010-02-11
Gimmik News From The Past 2005 10.0 85 2005-09-11 2017-03-29
Hesse & Drewes Trance Motions 1997 0.0 12 2005-09-11 2005-09-06
Karsten Pflum Flugten Fra År 2000 2003 3.0 33 2005-09-11 2008-04-07
various Intelligent Toys 2004 3.0 30 2005-09-11 2012-08-23
757 757 2002 1.0 23 2005-09-27 2010-05-21
Alarm Will Sound Acoustica. Performs Aphex Twin 2005 0.3 20 2005-09-27 2009-07-23
Bernhard Fleischmann A Choir Of Empty Beds 2000 0.0 13 2005-09-27 2005-09-05
Bernhard Fleischmann Welcome Tourist 2003 7.0 132 2005-09-27 2013-08-05
Blamstrain Ensi 2003 1.0 7 2005-09-27 2010-01-21
Boards Of Canada The Campfire Headphase 2005 6.0 35 2005-09-27 2015-06-22
Hydrus & Kettel Narrominded Split 2004 0.0 0 2005-09-28 Never
Sense Ice Scatter Slumber 2000 1.0 13 2005-09-28 2008-04-05
Sense A View From A Vulnerable Place 2001 2.0 14 2005-09-28 2010-07-07
Sense Smallthings 2005 1.0 16 2005-09-28 2015-04-19
various SM Compilation 03 2003 1.0 30 2005-09-28 2008-08-10
Bochum Welt Module 2 1996 8.1 89 2005-10-01 2014-04-17
Bochum Welt Elan 2005 3.0 34 2005-10-12 2014-04-17
Textual Hindsight Sunglasses 2004 6.0 53 2005-10-12 2012-08-18
Esem Serial Human 2003 5.0 42 2005-10-20 2011-12-24
Velapene Screen Medical Breaths 2004 0.0 3 2005-10-20 2006-05-30
Bad Loop Luo 2005 0.1 5 2005-10-25 2008-05-09
Boc Scadet Lost 2004 2.0 9 2005-10-25 2008-02-29
Boc Scadet Yleptic 2004 9.0 46 2005-10-25 2019-07-07
Bochum Welt Program 11 1998 12.0 120 2005-10-25 2014-04-17
Proem Songs 4 The City Bus 2004 1.0 3 2005-10-25 2015-04-25
Folie Eyepennies 2005 1.0 11 2006-01-01 2008-08-07
Aphex Twin Analogue Bubblebath 4 1994 3.0 18 2006-01-09 2017-08-08
Bochum Welt Unreleased Tracks 2005 0.1 7 2006-01-13 2009-04-15
Casino vs. Japan Go Hawaii 2000 2.0 6 2006-01-13 2008-04-21
Duo 505 Late 2004 1.0 15 2006-01-13 2008-08-07
Melodium Parthenay 2004 4.0 55 2006-01-13 2015-04-30
Tomcats in Tokyo Sweet Gloomy Home 2003 0.0 0 2006-01-13 Never
Tomcats in Tokyo Billow 2005 0.0 0 2006-01-13 Never
Tomcats in Tokyo Metamorphine 2005 0.0 0 2006-01-13 Never
Kettel Dreim 2001 0.0 5 2006-02-07 2007-11-23
Kettel Red Pear 2001 0.0 4 2006-02-07 2006-01-27
Kettel Tadley Management 2002 1.0 7 2006-02-07 2009-04-13
Kettel Cuddle And Then Leave 2003 1.0 9 2006-02-07 2009-04-13
Nathan Fake Silent Night. Grandfathered 2005 3.0 12 2006-02-07 2013-04-17
Ambidextrous Errorism 2001 4.0 26 2006-02-08 2018-02-20
Bauri Slacker Journal 2002 0.0 8 2006-02-08 2006-02-08
Bauri Everything Will Be OK Again 2003 1.0 6 2006-02-08 2008-01-12
Beefcake Y727 2003 1.1 9 2006-02-08 2009-08-05
Funckarma Elaztiq Bourbon 5 2005 0.0 2 2006-02-08 2006-02-04
Jeswa Skone 1997 0.0 0 2006-02-08 Never
Sense Very Me 2000 1.0 13 2006-02-08 2008-04-21
Sovacusa Centrepoint 2005 0.0 8 2006-02-08 2006-02-06
Vector Lovers Capsule For One 2005 4.0 21 2006-02-08 2019-07-07
Solar Fields Leaving Home 2005 1.0 3 2006-04-10 2008-03-30
Kero Kerologistics 2005 2.0 25 2006-04-15 2011-04-21
various The Cosmic Forces Of Mu 2001 2.1 8 2006-04-15 2008-04-19
Blamstrain Remixed 2005 2.1 13 2006-05-05 2009-08-04
CiM Do Not Multiply Models 2003 6.1 25 2006-05-05 2021-03-02
Crunch Nullpluseins 2001 0.2 15 2006-05-05 2008-09-27
Erast Cyberpunk 2005 3.0 21 2006-05-05 2009-08-04
Infinite Scale Sound Sensor 2005 3.0 36 2006-05-05 2009-08-04
Lackluster Showcase 2003 1.0 15 2006-05-05 2007-09-10
Lackluster You Are On My Mind 2003 1.0 14 2006-05-05 2015-04-25
Lackluster Fin Chip Pimp 2005 1.0 9 2006-05-05 2008-09-19
Lackluster What You Want Isn't What You Need 2005 0.0 1 2006-05-05 2007-11-28
Loess 3D Concepts Part 2 2003 0.0 0 2006-05-05 Never
Maps And Diagrams Perspect 2005 1.0 11 2006-05-05 2008-03-27
Miles Tilmann Underland 2001 1.1 9 2006-05-05 2008-04-01
Mloski No Face Hero 2005 0.0 5 2006-05-05 2007-07-17
Skipsapiens Eco 2005 0.0 5 2006-05-05 2009-07-01
Sleepy Town Manufacture For You And For Me 2004 0.0 1 2006-05-05 2006-05-05
various Station 2004 1.1 7 2006-05-05 2015-04-15
Jega Geometry 2000 3.1 22 2006-05-29 2017-03-28
Sleepy Town Manufacture Latatoo 2002 1.0 10 2006-05-29 2011-05-15
The Flashbulb Red Extensions of Me 2004 3.0 17 2006-06-01 2009-07-01
Mint Frosted Glass 2005 5.0 18 2006-06-07 2015-10-02
Multiplex Angles 2001 0.0 2 2006-06-07 2006-06-11
Multiplex With Hands And Feet Remix EP 2004 2.0 8 2006-06-07 2008-04-20
Ochre A Midsummer Nice Dream 2004 11.0 65 2006-06-07 2020-04-09
Tycho Sunrise Projector 2004 3.0 13 2006-06-07 2011-12-24
various Stop Look Wave 2004 3.0 12 2006-06-07 2008-09-22
various Blue Chair Red Chair 2005 1.0 4 2006-06-07 2015-04-19
Arovane Cycliph 2002 0.0 1 2006-06-12 2006-06-07
Arovane Atol Scrap 2000 1.0 10 2006-07-15 2015-04-15
Bochum Welt Telestatt 1995 0.0 1 2006-08-09 2006-08-09
Ochre Lemodie 2006 7.0 27 2006-08-09 2013-04-24
The Voder Mannequin. Terpsitone 1996 1.0 4 2006-08-12 2011-06-02
various Trabant Chai Compilation 2005 4.0 44 2006-08-12 2009-04-16
various Ulmerealismi Tahised 2005 1.0 5 2006-08-12 2015-04-17
various Hiiro 2004 0.0 7 2006-08-26 2006-08-26
Vessel Resist 2005 0.0 2 2006-08-26 2006-08-27
Prhizzm Fragment Synthesis 2003 2.0 17 2006-10-04 2015-04-25
Prhizzm Minerals Series 09 2005 1.0 12 2006-10-04 2008-01-11
Prhizzm Prhizzm EP 2005 2.0 27 2006-10-04 2015-04-18
Cheju Dreamscapes 2005 2.0 17 2006-10-25 2011-05-11
DoF Sun, Strength, And Shield 2006 6.0 26 2006-10-25 2012-11-27
Plaid Greedy Baby 2006 3.0 45 2006-10-25 2012-02-25
Proem 2=1 EP 2000 1.0 18 2006-10-25 2011-06-07
Sincere Trade If You Cannot Beat Them 2006 1.1 62 2006-10-25 2008-09-19
Squarepusher Hello Everything 2006 3.0 22 2006-10-25 2015-04-18
Ten And Tracer An Hour Brighter 2002 5.0 144 2006-10-25 2015-04-19
various Mercury Scales 2005 1.0 20 2006-10-25 2009-05-23
various Polyphonic Petals 2006 3.0 58 2006-10-25 2010-04-02
Vector Lovers Vector Lovers 2004 10.0 80 2006-10-25 2015-09-01
Isan Salamander 1999 1.0 6 2006-11-24 2008-04-21
Photophob Digitalis 2004 2.0 34 2006-11-24 2015-04-19
Photophob Your Majesty Machine 2004 3.0 50 2006-11-24 2009-06-28
Proem Among Others 2001 0.0 14 2006-11-24 2006-12-11
Proem Negativ 2001 1.0 43 2006-11-24 2007-11-27
Proem You Shall Have Ever Been 2005 0.0 33 2006-11-24 2006-12-16
Aphex Twin Analogue Bubblebath 3 1997 6.0 42 2006-12-09 2017-08-08
Aphex Twin Analogue Bubblebath 3.1 1997 3.0 10 2006-12-09 2017-08-08
DoF A Year In Waiting 2005 3.0 16 2006-12-09 2009-08-04
Octavcat Dumming Up 2006 1.0 20 2006-12-09 2008-08-29
Polestar Metokinetik 2005 3.0 82 2006-12-09 2015-04-18
Karsten Pflum Idhax 2006 1.0 48 2006-12-31 2008-08-08
Plaid Booc 2000 0.1 2 2007-01-03 2007-05-06
Kettel Look At This! Ha Ha Ha! 2003 0.0 26 2007-01-25 2008-08-16
Populous Quipo 2002 0.0 43 2007-01-25 2007-01-18
Sleepy Town Manufacture Promo 2002 1.0 26 2007-01-25 2008-01-16
The Gasman This One's For You 2006 2.0 37 2007-01-25 2011-10-11
Wisp NRTHNDR 2005 0.0 19 2007-01-25 2007-11-29
Jello Voile 2002 0.0 30 2007-02-08 2007-02-21
Frank Murder Stöðin 2004 0.1 12 2007-02-20 2008-04-08
Kettel & Secede Perspeeks 2007 4.0 18 2007-02-20 2015-08-02
Króm It All Makes Sense Now 2003 3.0 34 2007-02-20 2012-10-05
Mint Audubon 2004 3.0 33 2007-02-20 2015-06-27
Mint Manmade Nature 2004 1.0 1 2007-02-20 2007-06-03
Mint Out Of Context 2006 0.0 9 2007-02-20 2007-04-15
Mint Chasing Shadows 2007 0.0 12 2007-02-20 2007-02-14
Multiplex Momensch 2006 0.0 2 2007-02-20 2007-04-15
Phylum Sinter The Discreet Business 2002 0.0 3 2007-02-20 2007-02-14
Phylum Sinter Biginsweden 2003 0.0 1 2007-02-20 2007-02-13
Phylum Sinter Inter[mediate] 2006 0.0 5 2007-02-20 2007-02-13
various Friends We Met Along The Way 2003 0.0 17 2007-02-20 2007-04-15
various Modsquare Ctrl-Space 2005 1.0 27 2007-02-20 2008-03-28
various Brittle Behaviour 2007 0.0 53 2007-02-20 2007-02-15
Andre Estermann Untitled 1997 0.1 10 2007-04-15 2008-02-28
Belbury Poly The Owls Map 2006 2.0 58 2007-04-15 2011-09-13
David Newlyn Ancient Lights 2007 1.2 81 2007-04-15 2009-07-30
Modul Cutting Edge 2007 8.0 96 2007-04-15 2011-06-02
Monokle Something About Frost 2007 1.0 92 2007-04-15 2007-11-30
Ochre www.ochremusic.com 2006 5.1 51 2007-04-15 2017-03-25
Andre Estermann Simstim 1999 1.0 11 2007-05-28 2012-11-19
Hectopascal Anywhere And Me 2005 2.1 20 2007-05-28 2009-10-29
Lusine Podgelism 2007 1.0 43 2007-05-28 2008-11-29
Maus Recogniser 2005 3.0 30 2007-05-28 2015-04-30
Proem A Permanent Solution 2007 1.0 98 2007-05-28 2008-09-28
The Black Dog Spanners 1994 0.1 128 2007-05-28 2008-03-31
d'Arcangelo Eksel 2007 1.0 17 2007-08-06 2009-08-05
Kettel Whisper Me Wishes 2007 1.0 13 2007-08-07 2011-08-13
Sektor Nostalgia 2005 1.0 26 2007-08-07 2008-09-20
Sense Fourier Transformations 2001 0.0 2 2007-08-07 2007-07-25
Sensiva Giosun 2005 1.0 1 2007-08-07 2007-07-23
various 030303 #2 2007 1.0 5 2007-08-07 2008-08-16
Lackluster Lax EP 2006 0.0 0 2007-08-16 Never
Stud Greetings Fatherland 2007 0.1 15 2007-08-16 2008-04-09
BTB Who Wants To Be Healthy In This Sick World 2007 3.1 142 2007-09-30 2015-09-01
Migloje Migloje EP 2005 0.0 18 2007-09-30 2007-10-13
Aleksi Perälä Project V 2007 1.0 10 2007-10-27 2008-03-30
Quick & Brite The Pooh EP 2001 0.0 5 2007-10-27 2007-10-01
08 Blur And Shaped 2005 2.0 16 2008-01-14 2012-01-19
Ambidextrous Rocket Mind 2007 1.0 34 2008-01-14 2008-03-19
Biotron Shelf 33 Minutes North 2006 1.0 32 2008-02-02 2008-07-01
Saturday Index Partly Cloudy 2007 1.0 21 2008-02-02 2008-12-08
-scaldis- For Starters 2006 1.0 125 2008-02-02 2010-04-02
Shreber Harber Mole Flying Wheel Air Comfort 2004 0.0 36 2008-02-02 2008-04-05
Christian Kleine Valis 2002 0.0 8 2008-03-24 2008-04-05
Eedl Everse 2007 1.0 43 2008-03-24 2009-08-04
Geiom Island Noise 2007 0.0 1 2008-03-24 2008-02-07
The Flashbulb Soundtrack To A Vacant Life 2007 7.0 60 2008-03-24 2011-12-29
BTB Think Is A Fabulous Treasure 2007 3.0 74 2008-04-08 2009-07-23
Preston Aespatia 2007 3.0 47 2008-04-08 2009-08-04
Sense Where Has Everyone Gone 2005 1.0 13 2008-04-08 2008-06-27
Aus Antwarps 2008 1.0 30 2008-04-29 2008-06-13
Drøn Homeworld 2002 0.0 0 2008-04-29 Never
Kettel Myam James Part 1 2008 10.0 71 2008-04-29 2015-02-21
Sofus Forsberg Udefra 2005 0.1 16 2008-04-29 2008-06-27
Maps And Diagrams & Broca Ducks Don't Swim In Swamps Vol. 3 - Mono Curac-Co EP 2005 0.0 6 2008-05-12 2008-06-01
Maps And Diagrams Onamatapea 2006 0.0 15 2008-05-12 2008-06-01
Ola Bergman The Satellite City 2005 4.0 64 2008-05-12 2012-09-24
Kettel Atomic Tadley, APM 2001 0.0 0 2008-06-06 Never
Kettel Brother Max 2001 0.0 0 2008-06-06 Never
Kettel Cenny 2002 0.0 0 2008-06-06 Never
Lackluster CDR#1 1999 0.0 0 2008-06-06 Never
Planet Boelex Misplaced 2006 2.0 7 2008-06-06 2009-01-24
Quinoline Yellow Uchel001 2005 2.0 13 2008-06-06 2009-07-23
rRine Eaciv 2005 1.0 12 2008-06-06 2008-07-01
Z-Arc Accumulative Effect 2008 3.0 29 2008-06-06 2008-06-30
30[eks] EKS? 2006 3.0 9 2008-06-20 2010-07-01
Abyssal Plains Pictures In Sound 2008 2.0 23 2008-06-20 2009-06-07
Am-Boy Clayton's Hideout 2004 2.0 12 2008-06-20 2008-10-04
Bola Kroungrine 2007 1.0 8 2008-06-20 2008-08-29
Cepia Natura Morta 2007 2.0 16 2008-06-20 2013-03-11
MD Appelsap 2000 2.0 7 2008-06-20 2008-06-28
Mental Disease Artifact 2007 1.0 4 2008-06-20 2009-08-05
Milieu New Drugs For Nuclear Families Of The Seventies 2007 3.0 5 2008-06-20 2011-09-13
Mint Binary Counting 2007 2.0 4 2008-06-20 2009-08-05
Multiplex Iroquois 2002 0.0 1 2008-06-20 2009-02-05
Skey Another Intention 2008 2.0 19 2008-06-20 2012-01-03
The Flashbulb That Missing Week 2007 1.0 1 2008-06-20 2008-06-29
EU Warm Math 2002 1.0 13 2008-07-03 2008-10-07
Mint Pulse 2008 3.0 14 2008-07-03 2008-09-23
various MD8 2004 1.0 22 2008-07-03 2009-07-06
various Robopop Volume 1 2004 2.0 25 2008-07-03 2008-11-28
Abyssal Plains Hemispherical Sky 2007 1.0 8 2008-07-30 2009-08-05
Apparat Things To Be Frickled 2008 3.0 11 2008-07-30 2012-10-25
Drøn Parsec 2000 1.0 3 2008-07-30 2012-08-20
Elements Of Sci-Fi Climate Control 2007 1.0 7 2008-07-30 2011-05-27
Kungfoo Delays 2004 1.0 4 2008-07-30 2012-10-23
various Stereo Taifun 2. Overload 2007 0.0 7 2008-07-30 2011-02-18
Barry Lynn Balancing Lakes 2008 3.0 20 2008-08-19 2011-04-25
Ilkae Stained Glass Confetti 2004 1.0 10 2008-08-19 2008-10-27
Jérôme Chassagnard (F)Light 2008 6.0 15 2008-08-19 2014-04-10
various Das Drehmoment - 5th Anniversary Compilation 2008 3.0 16 2008-08-19 2012-02-27
Coax Wobo Jomodo 2008 2.0 28 2008-08-19 2009-06-28
various Tured In Been 2006 0.0 0 2008-08-19 Never
Modul Re-Cutting Edge 2008 2.0 12 2008-10-09 2008-12-07
mu-Ziq Duntisbourne Abbots Soulmate Devastation 2007 1.0 39 2008-10-09 2008-12-07
The Gasman Audiogold 2007 1.0 13 2008-10-24 2008-12-23
Hab Mapod 1997 2.0 9 2008-11-01 2012-08-02
Maps And Diagrams Smeg 2008 0.0 1 2008-11-01 2008-10-30
Abyssal Plains Chimera 2006 1.0 4 2008-11-15 2012-10-22
Araya The Bridge Of Hesitation 2008 2.0 15 2008-11-15 2011-09-03
Plod Pillow Talk 1999 3.1 21 2008-11-15 2014-11-28
Xploding Plastix Treated Timber Resists Rot 2008 1.0 7 2008-11-15 2012-11-16
Mrs Jynx The Standoffish Cat 2008 1.0 4 2008-11-25 2009-02-06
Ula Just An Engine 2004 4.0 11 2008-11-25 2020-06-17
Ochre Death Of An Aura 2008 0.0 4 2008-12-09 2009-09-29
Lipsis Modern Myths 2006 1.0 6 2008-12-15 2010-06-15
Lusine Iron City 2002 0.0 0 2008-12-15 Never
Quinoline Yellow Colour Index 47005 2006 2.0 9 2008-12-15 2009-03-06
Utility Player Convulex 2005 1.0 6 2008-12-15 2012-08-18
moroza_knozova Valek Polkis 2008 0.0 21 2009-01-01 2008-12-17
Polestar Space Expanses 2008 13.0 133 2009-01-01 2020-12-23
City Rain Light Turned On 2008 4.0 16 2009-02-01 2011-04-20
Krystian Shek War 2008 2.0 25 2009-02-01 2011-04-13
Plaid Heaven's Door 2008 1.1 17 2009-02-01 2012-02-25
Point 7 What? 2009 6.0 70 2009-02-01 2015-11-17
Polestar Complex EP 2005 1.1 10 2009-02-01 2011-09-13
Polestar Live 2008 6.0 27 2009-02-01 2012-09-07
various Фёдор Конюхов Tribute 2008 2.0 12 2009-02-01 2011-04-18
Sleepy Town Manufacture Hello And Goodbye 2008 2.0 11 2009-03-05 2009-05-24
Multiplex The Monitors 0 0.0 2 2009-03-18 2009-03-06
The Flashbulb Resent And The April Sunshine Shed 2003 3.0 26 2009-03-18 2011-06-11
Another Electronic Musician Five 2008 1.0 10 2009-04-07 2009-06-24
Cantilever Hadalis Idalis 2008 0.0 2 2009-04-07 2009-03-27
Multiplex I Am Eyes 2006 1.0 5 2009-04-07 2011-12-19
Sean Eskimo Records For Small Children 2008 2.0 3 2009-04-07 2009-05-30
Dunaewsky 69 Xquisite. Xcerpt 2007 0.0 0 2009-04-20 Never
City Rain This I Will Remember 2009 2.1 4 2009-05-09 2009-05-31
HECQ 0000 2007 0.0 2 2009-05-09 2009-05-06
Infinite Scale Ad Infinitum 2009 1.1 4 2009-05-09 2009-06-23
Jon Hopkins Insides 2009 1.1 5 2009-05-09 2009-06-19
Naono Tumbleweed Tracks 2008 2.1 8 2009-05-09 2009-07-19
Oil 10 Arena 2003 6.0 40 2009-05-09 2015-01-25
Blamstrain Exosphere 2009 0.0 7 2009-06-17 2009-06-10
Mint Cardboard Rocketships 2009 5.2 15 2009-06-17 2012-12-11
Ovuca Wasted Sunday 2001 1.1 18 2009-06-17 2009-06-17
Principles of Geometry Principles of Geometry 2005 1.3 25 2009-06-17 2009-08-19
Kettel Myam James Part 2 2009 14.2 125 2009-07-19 2019-04-27
2methylBulbe1ol Quelques Siècles d'Insomnie 2009 0.1 0 2009-08-04 Never
8yone Keymotion 2007 2.0 5 2009-08-04 2009-08-17
Amorph Etats d'Esprit 2007 7.2 32 2009-08-04 2014-07-14
Bristle Weather The Eyes Of A Night Town 2009 0.1 1 2009-08-05 2009-07-27
Cathode Sparkle Plenty 2009 1.3 13 2009-08-05 2009-08-25
ENV(itre) Okoy 2007 3.2 12 2009-08-05 2012-09-26
Frog Pocket Gonglot 2005 1.0 13 2009-08-05 2009-07-30
Icarus Sylt Remixes 2009 1.0 18 2009-08-05 2012-10-25
Infinite Scale Automated Compositions 2006 3.0 8 2009-08-05 2012-10-26
Jean-Michel Tons Of Fun 2009 1.4 22 2009-08-05 2009-08-22
Koen Park 84-85 2009 3.0 8 2009-08-05 2009-08-19
Mise En Scene Neo~ylo 2007 0.0 1 2009-08-05 2009-08-02
Modul Isol 2004 0.0 0 2009-08-05 Never
Obfusc Internal Countryside 2006 3.0 9 2009-08-05 2009-10-11
Ochre Like Dust Of The Balance 2009 6.2 23 2009-08-05 2014-09-23
Ochre Petl EP 2009 3.1 17 2009-08-05 2012-12-01
Sektor Nuoja 2007 0.0 0 2009-08-05 Never
Taborshell & Sektor Tandem Series 6 0 0.0 1 2009-08-05 2009-08-03
Tonikom The Snipers Veil 2009 0.0 0 2009-08-05 Never
Traject Birting 2009 0.0 10 2009-08-05 2009-07-26
various Mioku 2008 1.1 4 2009-08-05 2009-10-25
various Elpa22. Colors Of The Calm 2009 1.1 4 2009-08-05 2009-10-25
various Museum Of Future Sound 2 2009 0.0 2 2009-08-05 2009-07-26
Zainetica Redirection 2006 2.0 6 2009-08-05 2012-10-25
Amorph Empathie 2006 3.1 5 2009-09-01 2011-08-19
Amorph Handle With Care 2006 2.1 2 2009-09-01 2010-06-14
Amorph Péripéties 2008 0.2 1 2009-09-01 2010-06-14
Coax The Third Mobius 2009 0.0 2 2009-09-01 2009-08-17
Ilkae Pistachio Island 2001 0.0 5 2009-09-01 2009-08-19
PJE Variations 2009 1.0 2 2009-09-01 2009-10-10
Retic Saturn Day Trajectory 2007 0.4 13 2009-09-01 2014-07-14
Soundhacker 336 Hours Later 2006 1.0 4 2009-09-01 2009-10-10
Sport & Music Films 2009 1.1 3 2009-09-01 2009-10-10
Stud Swordcore 2009 0.0 0 2009-09-01 Never
Sunosis Warmed 2007 1.0 2 2009-09-01 2009-09-29
various Colonized 01 2006 1.0 16 2009-09-01 2009-09-29
various Moods Of Summer. Solar Architextures & Moon Tales 2009 3.1 7 2009-09-01 2011-12-19
Cheju Patchwork Part 2 2005 1.0 1 2009-10-01 2009-10-10
Krusseldorf Thermo Nuclear 2009 2.0 6 2009-10-01 2012-10-23
L'Ombre Letting Go At The Steering Wheel 2009 0.0 0 2009-10-01 Never
Poordream Immaterial Monarch 2009 1.0 1 2009-10-01 2009-10-30
Sanderik P A25g-305 2008 2.0 2 2009-10-01 2012-09-07
Apparat Tttrial & Error 2009 0.0 1 2009-11-01 2009-10-26
Bauri & Novel 23 Split 7 Inch 2004 0.1 0 2009-11-01 Never
DTMF Tape Out 2008 5.0 5 2009-11-01 2012-12-09
Eepl Cat Client-Bank System 2007 2.0 3 2009-11-01 2012-12-07
I Buried Paul The 633 EP 2008 0.1 0 2009-11-01 Never
Outputmessage Oneiros 2003 0.1 7 2009-11-01 2009-10-19
Pentatonik A Thousand Paper Cranes 2009 2.0 2 2009-11-01 2010-01-04
Skanfrom Sendertechnik 001 1998 3.0 3 2009-11-01 2012-10-21
Skanfrom Talking Translator 1998 3.0 5 2009-11-01 2012-07-14
Skanfrom Are You Alone 2009 1.0 2 2009-11-01 2010-01-04
Sowrkream From The Mellow Menses Lab 2009 0.0 0 2009-11-01 Never
Teardrop Time Spent With Antique Mirrors 2009 1.0 1 2009-11-01 2010-01-04
Tomcats In Tokyo & Isan Awkward 21 2005 0.0 0 2009-11-01 Never
various Soulseekers Vol.1 2009 0.0 0 2009-11-01 Never
Geskia Eclipse 323 2009 0.0 11 2009-12-19 2009-12-17
Lone Lemurian 2008 2.2 43 2009-12-19 2010-10-27
Nikakoi Selected 2009 8.0 30 2009-12-19 2019-07-08
Rone Spanish Breakfast 2009 4.3 5 2009-12-19 2010-01-29
Boulderdash We Never Went To Koxut Island 2000 0.0 4 2010-01-12 2009-12-30
Ital Tek Mako 2009 2.0 20 2010-01-12 2011-11-01
Luke Abbott Whitebox Stereo 2009 1.0 3 2010-01-12 2012-12-10
Millipede All My Best Intentions 2009 0.1 5 2010-01-13 2010-01-04
Phylum Sinter Various 2006-2008 2009 2.0 12 2010-01-13 2011-12-24
Proswell Konami 2002 0.0 0 2010-01-13 Never
Soehngen How Do You Do 2009 1.1 1 2010-01-13 2011-10-05
Stockfinster Dead Line 2009 0.0 0 2010-01-13 Never
d'Arcangelo The Album 2009 6.1 17 2010-02-27 2010-08-17
Hydrus Interleaves 2008 3.1 5 2010-02-27 2012-12-07
Idhren Klint 2009 4.0 4 2010-02-27 2012-09-05
Sr. Aye Nocturnal Habits 2009 1.0 6 2010-02-27 2010-08-13
various 36 Feet Under 2009 2.1 3 2010-02-27 2012-12-04
Wisp We Miss You 2009 7.1 13 2010-02-27 2012-10-24
Yimino Autonoe Vora 2007 3.0 8 2010-02-27 2012-10-25
Aleksi Perälä Mental Union 2009 3.1 4 2010-04-12 2012-10-25
Architect Consume Adapt Create 2010 0.0 0 2010-04-12 Never
Melorman Expressing Thoughts 2009 1.0 1 2010-04-12 2012-08-22
Melorman Out In A Field 2009 1.1 2 2010-04-12 2010-10-03
Min-Y-Llan The Black Lagoon 2010 1.0 1 2010-04-12 2012-11-16
Mint Glued, Stapled, Remixed 2010 4.0 4 2010-04-12 2012-08-20
TBA Pending 2009 4.2 12 2010-04-12 2011-05-28
Tycho Past Is Prologue 2006 0.0 1 2010-04-12 2008-03-25
Xerxes Selected Works. Jørgen Bryde 2009 1.0 2 2010-04-12 2012-08-19
Xerxes Selected Works. Volume One 2009 3.1 4 2010-04-12 2012-10-20
Xerxes Selected Works. Volume Three 2009 3.1 10 2010-04-12 2015-10-02
Xerxes Selected Works. Volume Two 2009 2.0 3 2010-04-12 2010-11-24
Another Electronic Musician States Of Space 2010 0.0 8 2010-05-01 2010-04-16
IG88 Mutual Mastication 2009 2.0 6 2010-05-01 2010-11-05
Yimino The Evolution Of Bulbuss And The Polymorphic Nightmare 2003 4.1 5 2010-05-01 2012-12-11
Yimino Doe 2007 2.0 2 2010-05-01 2012-11-21
Yimino Bulbuss 2008 1.0 1 2010-05-01 2012-08-18
Aleksi Perälä Boom Blaster 2009 3.2 5 2010-05-14 2010-06-18
DoF Suddenly Shifting Against The Sky 2010 1.1 1 2010-05-14 2012-12-09
Lusine Lucky Numbers. The Ghostly Internationals EPs 2010 1.0 2 2010-05-14 2012-11-21
Nonima Twilight 2009 0.0 0 2010-05-14 Never
Nukua Verminruqre 2009 2.0 3 2010-05-14 2012-09-07
Nukua Csoscoma 2010 1.1 2 2010-05-14 2012-09-25
Olympic Smoker Noises And Echoes 2009 4.1 5 2010-05-14 2012-12-07
Pinklogik Learning To Trust Higher Frequencies 2009 1.0 1 2010-05-14 2010-08-30
RNDM5 Chasing The Wave 2010 0.0 0 2010-05-14 Never
Sytrjv Adiscipling Vehicula 2009 0.0 0 2010-05-14 Never
Fibla Lent 2003 1.0 1 2010-07-27 2012-12-07
I, Cactus I, Cactus 2003 1.0 1 2010-07-27 2010-08-21
Isan Glow In The Dark Safari Set 2010 1.1 1 2010-07-27 2012-10-26
Isobutane Butane In Gray 2006 1.0 1 2010-07-27 2012-11-16
Isobutane Songs From The Recycle Bin 2009 0.0 0 2010-07-27 Never
Kero Jewmanji Cake 2010 0.0 0 2010-07-28 Never
Milieu Reverb Microcoma (Part One) 2010 0.1 0 2010-07-30 Never
Modul Quarterlife Recycle Bin 2010 3.0 3 2010-08-02 2012-10-25
Ochre Sound System Bangers Volume 01 2003 4.0 4 2010-08-02 2018-02-07
Saycet Through The Window 2010 0.1 1 2010-08-04 2012-08-22
Soutien Gorge Ionleány 2008 1.1 7 2010-08-05 2012-09-06
Soutien Gorge Szerelmes Nóta. Délutániád 2008 0.0 0 2010-08-05 Never
The Flashbulb Arboreal 2010 5.0 42 2010-08-05 2015-09-20
various Music Of Deneb.2099 2004 2.0 8 2010-08-06 2011-11-12
Yvat Gliae 2008 0.0 0 2010-08-06 Never
Aphex Twin Xylem Tube 1992 0.0 0 2010-08-07 Never
403 Unmute 2006 0.1 0 2010-08-16 Never
Crisopa Last Menbrane 2010 0.0 0 2010-08-17 Never
Fieldtriqp Old Haunts 2006 2.1 2 2010-08-18 2012-10-21
Julien Mier Soon, Close, Maybe Too Far 2009 1.0 2 2010-08-19 2012-09-06
Junior85 Wiiiiiiiiiiide Awake 2009 1.0 1 2010-08-19 2010-10-01
Karsten Pflum Slaphead Faun 2010 1.0 1 2010-08-19 2012-07-14
Kelpe The People Are Trying To Sleep 2003 0.0 0 2010-08-19 Never
Min-Y-Llan The Belders Wench 2010 0.0 0 2010-08-23 Never
moroza_knozova 1300000 Ice Dishes 2007 0.0 0 2010-08-23 Never
Mosaik Minutes 2004 1.0 1 2010-08-23 2012-12-09
Mosaik Apologies 2007 3.0 4 2010-08-23 2012-11-21
Mrs Jynx Shark Carousel 2010 11.0 15 2010-08-23 2014-09-16
Mrs Jynx & Oxynucid Symbiotix 2009 2.0 2 2010-08-23 2012-11-24
Reii Aeris Iris 2006 0.0 0 2010-08-24 Never
Younnat The Duct 2007 3.0 5 2010-08-26 2012-08-19
Zucchini Winter 2005 0.0 0 2010-08-26 Never
Access To Arasaka Metax 2007 0.0 0 2010-09-29 Never
Access To Arasaka Oppidan 2009 0.0 0 2010-09-29 Never
Audiokonstrukte Smart Echoes For Sensitive Ears 2007 4.0 4 2010-09-30 2012-12-11
CiM Reference 2000 2.1 2 2010-10-01 2012-10-23
Digitonal Be Still My Bleeping Heart 2010 0.0 0 2010-10-01 Never
Enabl.Ed Sound.Paper 2010 1.0 1 2010-10-01 2010-10-01
Iameb 57 Derika 2009 0.0 1 2010-10-05 2010-10-05
Iameb 57 Filic 9 2010 2.0 2 2010-10-05 2012-09-06
Meta Program Meta Programming 2010 1.0 4 2010-10-06 2012-08-19
Ruxpin Where Do We Float From Here 2009 4.2 23 2010-10-11 2012-08-19
Veell Birdsland 2010 2.1 2 2010-10-14 2012-10-25
30[eks] ThirtyX 2010 7.2 26 2010-11-04 2011-07-06
Fedaden Verdad 2009 0.0 0 2010-11-09 Never
Min-Y-Llan & Bagpipe Whiskey The West Coast 2010 0.0 0 2010-11-11 Never
Nebular Spool Ruins 2008 1.1 5 2010-11-11 2011-02-18
OCCID Aeria 2010 6.0 73 2010-11-12 2011-05-24
Odori Gathering Lines 2010 0.0 0 2010-11-12 Never
Yimino Breaker 2010 0.0 0 2010-11-18 Never
Idhren Dwarf Planet 2007 1.0 6 2010-12-02 2011-03-28
IG88 IG88 2010 2.0 2 2010-12-02 2011-04-27
Karsten Pflum Nemo Loon 2010 0.1 3 2010-12-02 2011-04-25
Alka Principles Of Suffocation 2007 9.0 30 2011-01-31 2012-07-15
d'Arcangelo Shipwreck 1999 0.2 2 2011-02-01 2011-02-01
d'Arcangelo Zero To Zero 1999 0.1 3 2011-02-01 2011-02-01
Mahpiya EP01 2008 0.0 0 2011-02-07 Never
Mnemonic Monokultur 2007 0.0 0 2011-02-07 Never
Mnemonic Hörsinn 2010 0.0 0 2011-02-07 Never
Modul Dots 2008 0.0 0 2011-02-07 Never
Ruxpin Elysium 2006 2.3 8 2011-02-07 2011-04-25
Ruxpin I Wonder If This Is The Place 2010 3.2 15 2011-02-07 2014-03-15
Textual Dirty South Still Life 2006 0.1 2 2011-02-07 2011-03-26
Wisp And Things That Never Were 2003 10.0 34 2011-02-08 2015-10-01
Wisp humpelndenBEATS 2004 1.0 24 2011-02-08 2015-05-18
Wisp Honor Beats 2006 0.0 4 2011-02-08 2011-03-26
Wisp The Shimmering Hour 2009 0.0 6 2011-02-08 2011-03-26
Spark The Robotic Girl Next Door 2002 6.0 15 2011-03-28 2012-08-19
Z-Arc Space Frame 2008 0.0 0 2011-03-28 Never
Dom Mino Unknown Coordinates 2009 5.2 6 2011-04-29 2012-12-07
Dunaewsky 69 Odessa Sea 2011 0.1 0 2011-04-29 Never
Iuengliss Motion In Mind 2009 0.1 0 2011-05-02 Never
Moodix Silence Blanche 2006 0.0 0 2011-05-03 Never
Nonima Bit Encryption 2010 0.0 0 2011-05-03 Never
Phylum Sinter Considerately 2010 1.0 2 2011-05-03 2011-10-12
Res Corporales Skeaf 2007 0.0 0 2011-05-03 Never
Spark Harmonic Seismology 2004 0.0 4 2011-05-03 2006-11-27
Spark Morbid Chillout 2004 0.1 0 2011-05-03 Never
Spark Super Robot Battle Deluxe 2004 1.0 2 2011-05-03 2011-06-01
Stendeck Scintilla 2011 1.1 1 2011-05-03 2012-09-27
Yvat Unfolded 2010 0.0 0 2011-05-03 Never
Ambidextrous Elephant Effect 2011 0.0 0 2011-06-02 Never
Amorph Midsummer 2010 0.0 0 2011-06-02 Never
Curium Nowever. A Suite Of Portraits By Curium 2006 3.1 3 2011-06-03 2012-12-09
d'Arcangelo Cradle And Go! 2010 0.0 0 2011-06-03 Never
Displacer Cage Fighter's Lullaby 2006 0.0 0 2011-06-03 Never
Dorian Concept Her Tears Taste Like Pears 2010 0.0 0 2011-06-03 Never
Dyad Secrets To Share 2010 2.1 8 2011-06-03 2011-11-09
Enabl.Ed Saccharine Morning 2011 1.0 1 2011-06-03 2015-04-12
Gangpol Und Mit The 1000 Softcore Tourist People Club 2011 2.0 4 2011-06-03 2011-11-09
Groundislava Groundislava 2011 2.0 2 2011-06-03 2012-08-19
Miktek Speculations 2010 0.0 0 2011-06-06 Never
Phe_ Phe_ 2011 1.0 3 2011-06-07 2011-11-23
Semyon Bind.Sever 2011 2.0 8 2011-06-08 2011-10-17
The Gasman Powerpoints 2010 0.0 0 2011-06-08 Never
theAudiologist Question Everything 2009 2.0 4 2011-06-09 2012-10-24
Trx Mist Chances 2008 0.0 0 2011-06-09 Never
Vector Lovers Electrospective 2011 5.0 6 2011-06-09 2015-06-27
Weldroid Stranglehold 2008 0.0 0 2011-06-09 Never
Zachary Gray Montréal I+II 2011 0.0 0 2011-06-09 Never
Zunzagi Delayed Emotions 2011 1.1 6 2011-06-09 2011-11-02
Bovaflux 2002 2002 1.1 3 2011-06-27 2012-11-30
Karsten Pflum No Noia My Love 2011 2.1 3 2011-06-29 2011-10-26
Koordinate Of Wonders Irreverse 2006 1.1 3 2011-06-29 2011-07-27
Ocoeur Les Hommes Ne Savent Pas Voler 2010 2.1 2 2011-07-05 2011-11-02
Ovuca Short Attention Span 2011 2.0 4 2011-07-13 2011-11-15
Xerxes Directions 2011 3.1 6 2011-07-21 2017-03-28
Yvat Astroid 2011 0.0 0 2011-07-21 Never
Σ-Fly Tides 2011 0.0 0 2011-07-21 Never
Biotron Shelf Corrugations 2011 1.0 3 2011-09-07 2012-02-12
Ill.Gates Schmunday School 2011 0.0 0 2011-09-12 Never
Kodomo Frozen In Motion 2011 1.1 2 2011-09-12 2011-10-11
Morpion Headcleaner 2011 3.0 2 2011-09-14 2015-10-01
Ochre Early Learning 2011 4.0 9 2011-09-14 2014-09-21
Pinklogik Inverse 2011 1.0 4 2011-09-15 2011-10-14
Veell Dreamorphine 2011 0.0 0 2011-09-19 Never
Vetrix Drop Of Blue 2011 0.1 3 2011-09-19 2011-11-09
Vetrix Sun Oblique 2011 2.1 7 2011-09-19 2012-02-15
Aleksi Perälä Astrobotnia - Part 00 2011 1.0 4 2011-09-28 2012-03-29
Alexeï Kawolski Chromatophores 2011 1.0 2 2011-09-28 2011-11-30
City Rain These Days 2009 1.0 2 2011-09-28 2011-10-11
Flutterspot Suitable For A Desire To Share 2007 2.0 3 2011-09-30 2012-09-27
Infinite Scale Ekko Location 2011 0.0 0 2011-09-30 Never
Lackluster The Invisible Spanish Inquisition 2011 0.0 0 2011-09-30 Never
Laszlo Radial Nerve 2011 1.0 7 2011-09-30 2012-03-08
Plaid Scintilli 2011 2.0 14 2011-09-30 2012-02-25
Solvent Solvent 1998 0.0 0 2011-09-30 Never
Solvent Solvently One Listens 1999 2.0 8 2011-10-03 2011-12-01
Nseven Longing 2011 0.0 0 2011-10-11 Never
Bitstream Domestic Economy 7 2005 3.0 3 2011-11-17 2012-01-10
Bitstream The Severed 2008 1.0 2 2011-11-17 2012-01-09
Casino vs. Japan Hitori + Kaiso 1998-2001 2004 5.2 12 2011-11-21 2012-09-07
Mint The Metronomical Boy 2011 1.2 3 2011-11-25 2012-05-20
Modul How To Play 2011 2.0 2 2011-11-25 2012-05-18
Automatic Tasty Sine Language 2008 0.0 0 2012-01-04 Never
Automatic Tasty Big Like Plastic 2009 1.0 1 2012-01-04 2012-10-25
Automatic Tasty In It For The Money 2010 1.0 1 2012-01-04 2012-10-25
Brazda Lui Novac Dizzy 2011 2.0 3 2012-01-05 2012-09-25
Donato Di Trapani Ear Street 2011 2.0 4 2012-01-05 2012-05-20
Enabl.Ed Everything & Nothing 2011 0.0 0 2012-01-06 Never
Enabl.Ed Sound.Paper 2 2011 0.0 0 2012-01-06 Never
Krusseldorf From Soil To Space 2011 0.0 0 2012-01-06 Never
Proem Enough Conflict 2010 0.0 0 2012-01-09 Never
theAudiologist Idios Kosmos 2011 0.0 0 2012-01-09 Never
Bauri Ninjafik 2000 0.0 0 2012-01-13 Never
Bauri Embryo 2001 0.0 0 2012-01-13 Never
Bauri Lakonia 2001 0.0 0 2012-01-13 Never
Bauri Morning Dew 2001 0.0 0 2012-01-13 Never
Beefcake Spontaneous Human Combustion 1997 0.0 0 2012-01-13 Never
Beefcake Polycontrale Contra Punkte 1998 0.0 0 2012-01-17 Never
Beefcake Drei 2002 2.0 4 2012-01-17 2012-02-29
Beefcake Hôte 2002 0.0 0 2012-01-17 Never
Beefcake In Media Res 2003 0.0 0 2012-01-17 Never
Beefcake Viande De Gâteau 2004 1.2 3 2012-01-17 2012-03-07
Folie Misspass 2002 0.0 0 2012-01-17 Never
Mikke 3 2011 1.0 3 2012-01-19 2012-03-24
Static Re Talking About Memories 2005 1.0 9 2012-01-20 2007-01-16
Em Eff We Speak In Non Sequitur 2011 2.2 9 2012-01-25 2012-06-15
Ital Tek Moment In Blue 2010 1.0 2 2012-01-26 2012-03-11
Lambent Smoothness Extract (Deep Night At Ishigaki) 2009 0.0 0 2012-01-26 Never
Murya Crystalline Substances 2011 3.0 12 2012-02-13 2015-08-22
Photophob Still Warm 2006 1.0 1 2012-02-13 2012-03-07
various InDepthMelodics (IDMForums001) 2008 0.0 1 2012-02-13 2009-03-28
Vizion Xian 2003 0.1 0 2012-02-14 Never
Dyad #7 Theory 2009 1.0 1 2012-02-28 2012-04-10
Gábor Deutsch Contrast 2000 0.0 0 2012-02-28 Never
Hyboid Escape From Shelag 1 2009 0.0 0 2012-03-02 Never
Lutris Indistinct Reveries 2011 3.1 7 2012-03-09 2012-08-13
Maps And Diagrams Snowglobe 2011 0.0 0 2012-03-09 Never
Metaeaux Per Aspera Ad Astra 2008 0.0 0 2012-03-09 Never
Metaeaux Sapere Aude 2008 1.0 2 2012-03-09 2012-03-30
Metaeaux Sapere Aude II 2008 0.0 0 2012-03-09 Never
Metaeaux Aeaux K 2009 1.0 2 2012-03-09 2012-04-30
Metaeaux Adjuvare 2010 0.0 0 2012-03-09 Never
Metaeaux Dresona 2011 0.0 0 2012-03-09 Never
Metaeaux Om Nom Nom 2011 2.0 6 2012-03-09 2012-08-27
Photophob Music For Spaceports 2005 0.0 0 2012-03-09 Never
Photophob November 30th 2005 0.0 0 2012-03-09 Never
Photophob About The Living Things 2006 0.0 0 2012-03-09 Never
Reed Refucher Tone 2012 1.1 4 2012-03-09 2012-08-14
The Flashbulb Opus At The End Of Everything 2012 10.1 22 2012-03-13 2017-03-26
Masmöd Conscious Automata 2011 1.1 4 2012-03-29 2012-09-20
Robot Junkyard Valence 2012 1.0 2 2012-03-29 2012-05-14
Aleksi Perälä Astrobotnia - Part 03 2002 0.0 0 2012-04-23 Never
Monolake Ghosts 2012 0.2 9 2012-04-26 2012-09-20
Mouse On Mars Parastrophics 2012 1.1 8 2012-04-26 2012-10-16
Sean Byrd Always Was 2012 4.0 13 2012-04-26 2017-03-27
Sense Axxil Of Macial 2012 0.0 0 2012-04-26 Never
Rat Faced Boy Lonesome Road 2012 2.0 15 2012-05-10 2012-09-28
The Ghost Of 3.13 The World Isn't Here 2012 2.0 13 2012-05-11 2012-10-03
Organoid Alienation Horizon 2012 6.0 29 2012-06-20 2017-03-29
Semiomime From Memory 2011 1.1 13 2012-06-22 2012-12-01
Squarepusher Ufabulum 2012 2.0 11 2012-06-22 2012-09-20
The Gasman 003 2011 0.1 3 2012-06-22 2012-08-06
Kilowatts Acceptitude 2012 4.0 39 2012-07-31 2012-10-15
Mrs Jynx Atlanta 2012 2.0 18 2012-08-02 2012-09-28
Sistema Possible Sounds Of Möbius 2012 7.0 57 2012-08-04 2017-03-26
Alexeï Kawolski Hikikomori 2012 1.0 18 2012-08-11 2013-06-27
Xerxes 226 B.C. 2010 1.0 5 2012-08-20 2012-08-31
Adhesion Universal 2012 3.0 27 2012-08-27 2012-10-03
likeicare Ortus 2012 1.0 5 2012-08-27 2012-09-28
Maus Bike 2005 0.0 1 2012-09-16 2012-09-15
Maus Maxella 2005 1.0 2 2012-09-16 2012-09-21
Maus Overwinning 2006 6.0 27 2012-09-16 2012-09-22
Maus Viaduct 2012 0.0 0 2012-09-16 Never
Seestrings In My Dream I Lost You 2005 1.0 21 2012-09-16 2012-09-27
Aleksi Eeben Avaruusmies Kaukana Kotoa (Spaceman Far Away From Home) 2006 0.0 12 2012-09-19 2012-09-19
CiM Service Pack 1999 1.0 5 2012-09-22 2012-11-25
CiM Warm Data 2000 5.0 13 2012-09-22 2016-01-08
CiM Noki Bay 2003 2.0 11 2012-09-22 2012-11-28
Octavcat Hard As Snails 2008 2.0 9 2012-09-25 2012-11-27
Ola Bergman & Geiom SMAK 05 - 06 2001 0.0 0 2012-09-25 Never
Ola Bergman The Great Family Hotel 2002 2.0 7 2012-09-25 2012-12-02
Ola Bergman Pseudocarp 2003 3.1 8 2012-09-25 2017-11-30
Ola Bergman Forecast 2005 1.0 6 2012-09-25 2012-11-26
Nathan Fake Steam Days 2012 0.0 2 2012-10-06 2012-10-05
Global Goon Pop Spectrum 2012 0.0 7 2012-10-06 2012-10-06
Z-Arc Ion Traffic 2006 0.0 8 2012-10-11 2012-10-10
Anagramm From Enceladus 2012 1.0 10 2012-11-25 2012-12-16
Benn Jordan Old Trees (1999 - 2011) 2011 9.0 17 2012-11-29 2014-05-01
Data Rebel Dreams For An Abstrakt Mind 2012 3.0 8 2012-12-09 2015-04-12
Electricwest Moth3r 2009 0.0 2 2012-12-12 2012-12-12
Hectopascal Pixies And Pixels 2004 1.0 2 2012-12-13 2012-12-25
Hectopascal Alive In Veddige 2005 0.0 0 2012-12-13 Never
Infant Growing Up 2002 0.0 0 2012-12-13 Never
Jonson Chiplandschaften 2005 1.0 12 2012-12-14 2012-12-13
IG88 A Loom & Not Me 2012 2.0 7 2012-12-15 2013-06-02
Life In A Box Primitive Form Of Comfort 2009 2.0 5 2012-12-15 2014-11-28
Little People We Are But Hunks Of Wood 2012 2.0 5 2012-12-15 2013-06-16
Medkit Tyche 2012 4.0 9 2012-12-16 2013-04-12
Mokhov Perfect Dream 2012 1.0 2 2012-12-17 2013-04-12
Mombus Le Printemps En Octobre 2007 0.0 0 2012-12-17 Never
Monokle Saints 2012 1.0 3 2012-12-17 2013-06-10
Obfusc Inverted Island 2009 0.0 0 2012-12-17 Never
Parabear Zen Do Narayan It 2012 1.0 5 2012-12-18 2012-12-29
Bovaflux Invariant 2012 3.0 12 2012-12-20 2013-06-05
Retax Gorgon Analogue Monologue 2007 0.0 0 2012-12-20 Never
Rone Tohu Bohu 2012 4.0 12 2012-12-20 2013-06-10
Sabi Unsui 2006 0.0 0 2012-12-21 Never
Seagram Murals Arcadia 2012 1.0 2 2012-12-28 2013-04-13
Sensiva Draught 2009 0.0 0 2012-12-28 Never
Stan-B Reflections Of Sadness 2012 0.0 1 2012-12-28 2018-02-26
Tineidae Lights 2012 0.0 0 2012-12-29 Never
Vector Lovers Afterglow 2007 0.0 0 2012-12-29 Never
Yoshiba 87 Beaming Flowers From India 2012 1.0 1 2012-12-29 2013-06-05
BTB Shadow 2011 0.0 0 2013-01-23 Never
BTB Heart Follow You Remixes 2012 0.0 0 2013-01-23 Never
Cepia Cepia 2010 0.0 0 2013-01-23 Never
Ochre National Ignition 2013 9.0 55 2013-02-11 2015-08-04
Pinklogik Random Access Memory 2012 4.0 16 2013-02-12 2013-07-28
Quinoline Yellow Smak 9-10 2001 0.0 0 2013-02-12 Never
Quinoline Yellow LMW Motors 2002 1.0 1 2013-02-13 2013-02-26
Quinoline Yellow Cyriack Parasol 2003 0.0 0 2013-02-13 Never
Skey Detalized Forms 2009 2.0 5 2013-02-13 2013-04-27
The Gasman 001 2007 0.0 0 2013-02-15 Never
Kettel Unreleased 2002-2012 2013 4.0 17 2013-02-20 2016-12-29
Aligning Minds My Heart Is Love 2013 1.0 3 2013-02-21 2013-06-03
Lazyfish & Mewark Lazyfish & Mewark 2006 2.0 2 2013-03-05 2014-07-15
Adam Johnson Chigliak 2003 6.1 22 2013-03-12 2015-01-14
Global Goon Journeys 2012 5.0 29 2013-04-12 2013-09-21
HouseBreaker Unconditional 2013 9.0 41 2013-04-12 2015-08-04
Kattoo Motu 2013 0.0 4 2013-04-30 2013-04-29
Koyani Downfall 2013 4.0 19 2013-05-01 2013-09-19
mu-Ziq Somerset Avenue Tracks (1992-1995) 2013 1.1 16 2013-05-06 2013-08-25
Ocoeur Light As A Feather 2012 3.0 20 2013-05-07 2013-09-20
Vector Lovers iPhonica 2013 8.0 65 2013-05-08 2013-09-25
(Ghost) Departure 2013 5.0 27 2013-07-04 2013-10-23
Akamatsu Infi(ni)me 2013 3.0 20 2013-07-05 2013-10-21
Alex Spalding Obelisk 2013 0.1 27 2013-07-08 2013-10-07
Aramaki WSOL 2013 2.0 19 2013-07-19 2013-10-21
Cheju & OBFUSC Break It Into Pieces 2005 2.0 14 2013-09-27 2013-11-08
Ciaran Byrne Unreleased Works 01-06 2012 4.0 24 2013-10-01 2013-11-22
EOD Questionmarks 2012 4.0 15 2013-10-15 2014-05-01
Headdreamer Antihuman 2010 3.0 16 2013-10-18 2013-12-19
Huete Idm Atmosphere 2013 2.0 17 2013-10-19 2013-12-04
Ice Front Synapse 2013 3.0 9 2013-10-19 2013-12-10
Kelpe Fourth. The Golden Eagle 2013 2.0 2 2013-11-19 2013-12-17
Mikael Fyrek Director's Cut 2008 1.0 1 2013-11-30 2013-12-03
Mikael Fyrek Echoes Of Friendship 2010 2.0 2 2013-11-30 2015-04-12
mu-Ziq Chewed Corners 2013 0.0 2 2013-12-03 2013-12-02
Obfusc Wrought From The Walls 2005 1.0 1 2013-12-05 2014-01-11
Omyiga Bending Colors 2013 6.0 19 2013-12-10 2014-06-25
Organoid Inner Vacuum 2013 3.0 14 2013-12-10 2014-06-24
Planet Boelex Suunta 2007 2.0 4 2013-12-13 2013-12-28
Planet Boelex Little World 2009 0.0 0 2013-12-13 Never
Planet Boelex Raja 2010 0.0 0 2013-12-13 Never
Bochum Welt Good Programs (To Be Coloured In Yellow) 2013 4.0 28 2013-12-13 2014-06-30
Kettel Ibb & Obb 2013 4.0 14 2013-12-14 2014-11-29
EOD EOD Volume 2 2013 3.1 9 2013-12-16 2014-06-30
Mrs Jynx Diving Loop 2013 1.0 3 2013-12-17 2014-07-03
Quinoline Yellow Palisade Mount 2013 3.0 14 2013-12-19 2014-07-09
Rec_Overflow Unemployed 2012 1.0 1 2013-12-19 2014-05-01
Ruxpin This Time We Go Together 2013 5.0 17 2013-12-19 2014-07-09
Tony Deus Damaged Reality 2013 0.0 1 2013-12-24 2013-12-24
Tony Deus Lost Identity 2013 2.0 5 2013-12-24 2014-07-07
Arovane Ve Palor 2013 4.0 13 2013-12-25 2014-07-08
d'Arcangelo Audiovisual Designs 2013 1.0 6 2013-12-30 2014-07-08
Planet Boelex Exist 2013 5.0 15 2014-01-07 2014-07-10
Plaid Dial P 2003 1.0 16 2014-01-15 2014-04-16
Ocoeur Memento 2013 1.0 3 2014-01-31 2014-06-24
Randomajestiq Mo Audio (Selected Works 2002 - 2004) 2004 1.0 1 2014-02-12 2014-05-02
Mind Over Rhythm & Plaid Mind Over Rythm Meets The Men From Plaid On Planet Luv 1995 0.0 2 2014-04-03 2014-04-02
Alexeï Kawolski Carré St-Louis 2009 0.1 2 2014-04-20 2014-04-19
Alexeï Kawolski Oxyde Et Brille 2010 0.0 3 2014-04-20 2014-04-19
Alexeï Kawolski Vestiges (Pièces Oubliées, B-Sides & Esquisses) 2011 0.0 8 2014-04-20 2014-04-20
String Theory Radiovalerian 2004 2.0 2 2014-04-28 2014-12-22
Alexeï Kawolski Night Of The Squid 2011 0.0 0 2014-05-07 Never
Mouse On Mars Spezmodia 2014 0.0 0 2014-05-12 Never
Plaid Reachy Prints 2014 4.0 8 2014-05-13 2014-07-31
3.142 Для Самых Маленьких 2014 0.0 0 2014-06-14 Never
Aphex Twin Caustic Window 1996 0.0 0 2014-06-25 Never
Benji Vaughan Even Tundra 2013 2.0 15 2014-06-26 2014-07-31
BLN Moldern 2013 1.0 2 2014-06-26 2014-07-31
c.db.sn & Scaffolding Covalent States 2011 1.0 4 2014-06-27 2014-08-01
Dirty Owl Dirty Owl 2013 2.0 2 2014-07-09 2014-11-28
Echaskech Origin 2014 1.0 1 2014-07-09 2014-10-19
EyeScream Noir 2014 2.0 31 2014-07-24 2014-08-14
Headdreamer Father 2013 3.0 6 2014-07-30 2015-04-11
I.Spall L'esprit D'escalier 2013 2.1 21 2014-07-31 2014-08-14
John Lemke People Do 2013 1.0 3 2014-08-04 2014-08-11
Legobyte Starfox 2013 3.0 4 2014-08-06 2015-04-11
Ligea Illusions 2014 3.0 3 2014-08-06 2015-04-12
Mario M Drop of Sorrow 2013 1.0 1 2014-08-08 2014-08-08
Morphology Identity Component 2014 0.0 0 2014-08-13 Never
Oil 10 Links 2001 1.0 1 2014-08-15 2014-08-15
Photophob Large Headroom Collider 2014 2.0 5 2014-08-20 2014-10-10
Scyye Timegazing 2013 2.0 18 2014-09-04 2014-10-19
Simiram Forgotten Memories 2013 1.0 6 2014-09-04 2014-10-09
The Last Gambit Songs For People Who Like Us 2011 4.0 22 2014-09-19 2014-10-16
The Pixel Door Opus Of Unrequited Love 2014 1.0 2 2014-09-20 2015-01-29
Wooky Montjuïc 2014 6.0 16 2014-09-23 2015-03-11
Yimino The Tide Reveals Your Bones 2013 0.0 0 2014-09-23 Never
Aaron Static Redemption 2013 3.0 14 2014-09-24 2014-10-09
Data Rebel Sketches 2014 3.0 7 2014-09-24 2015-03-01
Echaskech Skechbook 2007 4.0 7 2014-09-24 2014-10-08
Keiss Long Forgotten 2014 3.0 11 2014-09-24 2015-02-27
Midimode Spaceability 2013 6.0 9 2014-09-24 2014-10-18
8yone What Light Needs 2007 0.0 1 2014-10-12 2014-10-06
Aphex Twin Syro 2014 1.1 19 2014-10-12 2017-08-08
Aphex Twin Virtual Urban Aphex - Covers & Remixes 2014 4.1 22 2014-10-23 2017-08-08
Anodyne IV 2014 1.0 10 2014-10-27 2014-11-26
Arbitrarium Smalldog 2014 2.0 12 2014-10-27 2015-04-23
Headdreamer Human Frequencies 2014 0.0 4 2014-11-17 2014-11-17
Kodomo Patterns & Light 2014 1.0 6 2014-11-20 2015-05-31
Lost Midas Off The Course 2014 1.0 7 2014-11-20 2015-05-31
Monoform Amateur Electronics 2014 3.0 20 2014-11-20 2015-05-30
Murya Triplicity 2014 16.1 105 2014-11-20 2015-08-22
Patching Tom Rosehip 2014 1.0 6 2014-11-21 2015-05-24
Skanfrom Postcards 2014 0.0 0 2014-11-21 Never
The_Empath Growing Unrest 2014 1.0 5 2014-11-25 2015-04-20
Alias Maurice Disonnance 2013 2.0 7 2014-11-26 2015-01-06
Ilkae Stained Glass Piñata 2004 1.0 23 2014-12-04 2018-02-05
Ilkae Bring Extra Dragons 2006 0.0 0 2014-12-04 Never
La Lettre a Camus & Stereo Modus Pour Mille Milles 2001 0.0 1 2014-12-10 2014-12-09
Sean Eskimo Eskimo Theme 2006 0.0 0 2014-12-24 Never
Sean Eskimo Eskimusic 2007 0.0 0 2014-12-24 Never
Sean Eskimo English Breakfast 2008 1.0 2 2014-12-24 2015-01-24
Sean Eskimo Metalogicon 2011 0.0 0 2014-12-24 Never
Sleepy Town Manufacture Play Me While 2005 3.1 5 2014-12-24 2015-04-11
Sleepy Town Manufacture Plankton 2007 0.0 0 2014-12-24 Never
Chapelier Fou Invisible 2012 1.0 4 2015-01-17 2015-02-06
Eyesix Fotosynthesis 2014 1.0 3 2015-01-24 2015-05-25
Poordream Ninetynine 2014 0.1 4 2015-02-05 2015-02-19
Principles of Geometry Meanstream 2014 0.0 4 2015-02-05 2015-02-04
Sektor Color Variations 2008 0.0 1 2015-02-06 2015-02-06
Trackermatte Wasteland Boutique 2014 1.0 12 2015-02-13 2015-04-24
Ochre Isolette 2015 2.0 13 2015-02-16 2015-06-26
Zainetica Overcast City 2008 0.0 0 2015-02-16 Never
Datassette Can You Smell Maths 2006 3.0 5 2015-04-20 2015-08-30
Datassette People Without Mouths 2012 2.0 3 2015-04-20 2015-06-09
ENV(itre) Hescsecpalm Nowa Plyta 2007 2.0 10 2015-04-27 2015-08-06
ENV(itre) Leaving Traces 2008 0.0 8 2015-04-27 2015-04-27
ENV(itre) Fervenn 2009 0.0 0 2015-04-27 Never
Data Rebel Reborn 2015 7.0 34 2015-05-06 2015-08-31
Organoid Spectral Theory 2015 7.0 32 2015-05-20 2017-11-28
various Moon by Day 2014 2.0 5 2015-06-05 2015-08-30
Wooky The Ark 2010 1.0 2 2015-06-08 2015-07-02
Arms And Sleepers Instrumentals 2015 1.1 3 2015-06-27 2015-08-19
Karsten Pflum Dode 2015 4.0 14 2015-07-03 2017-11-28
Lusine Arterial Reworks 2015 1.0 1 2015-07-04 2015-08-02
Murya Heimaey 2015 8.0 44 2015-08-19 2015-12-30
Audrey Vixen Descension 2015 1.0 4 2015-08-23 2015-08-30
Kelpe The Curved Line 2015 0.0 0 2015-09-02 Never
Monolake D E C 2015 0.0 0 2015-09-03 Never
Plaid EGR45-00001 2015 1.0 2 2015-09-03 2015-09-08
DMX Krew There Is No Enduring Self 2015 2.0 0 2015-09-05 Never
Headdreamer Lost In Space 2015 2.0 1 2015-09-06 2015-09-06
Monolake I A 2015 0.0 0 2015-09-07 Never
(Ghost) Elas 2015 1.0 4 2015-09-08 2015-09-17
Mory(h Instrumental 2015 1.0 1 2015-09-10 2015-09-10
The Flashbulb aBliss 2015 1.0 3 2015-09-11 2015-12-29
Plaid Plaid Remixes - Parts In The Post 2003 1.0 1 2015-09-12 2016-04-20
Seagrave Seagrave 2014 1.0 3 2015-09-13 2015-09-30
Sensorica Versum 2015 1.0 2 2015-09-13 2015-09-23
kidkanevil My Little Ghost 2014 0.1 2 2015-09-18 2015-09-20
Cravagoide Empty Frame 2015 1.0 1 2015-09-18 2015-12-21
Очень Длинный Кот In Your Memory 2015 2.0 7 2015-09-18 2015-10-17
il:lo Distances 2013 0.1 2 2015-09-18 2015-09-20
il:lo Places 2015 1.0 3 2015-09-18 2015-12-29
2ndMOUSE The Secret Chords 2015 3.0 3 2015-09-19 2015-12-29
I Am Robot And Proud Light and Waves 2015 0.0 0 2015-09-24 Never
d'Arcangelo Periscope 2015 1.0 3 2015-10-13 2015-10-17
EOD EODS4 2015 0.0 0 2015-10-15 Never
Apparat Multifunktionsebene ● Tttrial and Eror ● Duplex 2015 0.0 5 2015-11-14 2015-11-13
Stereo Modus Restitutio In Integrum 2015 2.0 12 2015-12-05 2016-04-14
Data Rebel Unstill 2015 2.0 12 2016-01-04 2016-04-27
23:59 Million.Alone. 2015 1.0 6 2016-03-22 2016-03-22
Kettel Wingtip 2016 6.0 19 2016-04-11 2016-08-02
Jérôme Chassagnard Outer Dialog 2016 0.0 1 2016-04-11 2016-04-11
mu-Ziq Aberystwyth Marine 2016 0.0 0 2016-04-11 Never
Mokhov Solace Embrace 2016 2.0 0 2016-05-11 Never
Data Rebel Collection 2012-2016 2016 15.0 41 2016-05-29 2016-08-01
Aether To Meet Is The Beginning of Parting 2016 1.0 7 2016-06-05 2016-06-04
Keiss The Breath 2016 3.0 20 2016-06-28 2016-09-26
Somatic Responses Folding Space 2016 3.0 15 2016-08-23 2016-10-27
Species Of Fishes VIII 2016 0.0 2 2016-08-23 2016-08-23
Stan-B Lost Shades Of Sadness (Part 1) 2016 7.1 21 2016-08-28 2017-01-12
Medkit More Cold Than Warm 2015 0.0 4 2016-09-17 2016-09-17
Plonge P1116 2016 1.0 1 2016-09-29 2016-09-29
Zarmun Alpha & Omega 2016 4.0 10 2016-10-07 2017-03-24
Stan-B Lost Shades Of Sadness (Part 2) 2016 3.0 13 2016-10-08 2016-11-28
Octavcat Modified15 2016 0.0 0 2016-10-24 Never
Pilotredsun Achievement 0 3.0 7 2016-10-29 2016-11-24
Memory Cards Save Points 2015 1.0 3 2016-11-02 2016-12-24
Plaid The Digging Remedy 2016 2.0 2 2016-11-29 2017-01-19
Hosmoz Fading Mechanisms 2014 2.0 2 2016-12-15 2016-12-14
Microlith Train Stops For Free 2016 2.1 15 2016-12-17 2016-12-24
Majestic 13 Project Bluebeam 2016 4.0 36 2017-02-14 2017-05-05
Monolake VLSI 2016 3.0 2 2017-02-18 2017-03-02
Ruxpin We Become Ravens 2016 4.0 1 2017-02-19 2017-02-19
Csum Music For Non-Silent Timespending 2016 5.1 9 2017-03-01 2017-05-23
Bluetech The 4 Horsemen Of The Electrocalypse - The Red Horse 2016 3.0 4 2017-03-02 2017-03-23
Bluetech The 4 Horsemen Of The Electrocalypse - The White Horse 2016 3.0 1 2017-03-02 2017-03-27
Антон Тарасов Hoaxes 2016 3.0 9 2017-03-03 2017-04-04
Luo Sleep Spindles 2016 5.1 21 2017-03-07 2017-05-05
Max Cooper Emergence 2016 3.0 6 2017-03-09 2017-03-08
Analept Sternweite 2016 7.0 49 2017-03-16 2017-05-05
Memex Memory Index 2016 2.0 0 2017-03-18 Never
Ochre Beyond The Outer Loop 2017 4.0 15 2017-03-19 2017-05-05
Jega 1995 2016 2.1 2 2017-04-14 2017-06-18
Microlith Sophrosyne Please 2016 3.1 10 2017-04-15 2017-06-21
Saycet Mirage 2015 4.0 14 2017-04-16 2017-06-17
Mr. Projectile More Old Songs 2017 0.0 0 2017-05-01 Never
Dissolved Illuminant Shatter 2016 2.0 12 2017-05-26 2017-05-03
Csum Portable 2017 0.0 0 2017-06-26 Never
various Neo Ouija - Cottage Industries 6 2017 4.0 3 2017-07-02 2017-08-16
Lusine Sensorimotor 2017 1.0 7 2017-07-03 2017-07-03
various Cottage Industries 6 2017 3.0 20 2017-07-22 2018-01-12
Csum Mnemotron 2015 1.0 7 2017-07-24 2017-07-24
EOD EODS 2016 3.0 4 2017-07-26 2017-10-01
Miwon Jigsawtooth 2017 5.0 17 2017-08-07 2018-01-25
Polestar End Of An Era 2010 6.0 14 2017-08-10 2017-11-10
Ruxpin Midnight Drive 2010 3.0 2 2017-08-10 2017-08-30
Kettel Alacasa 2017 3.0 3 2017-09-17 2017-10-22
DMX Krew Strange Directions 2017 4.0 20 2017-09-18 2018-01-25
Ciaran Byrne Galtrim 2006 3.0 5 2017-09-18 2017-10-27
various IDM 2 2017 2.0 3 2017-10-01 2018-01-28
Andy Clark Scatterbeats 2017 5.0 34 2017-10-06 2018-01-26
Mabe HLDN 2017 2.0 6 2017-11-01 2018-01-25
Csum Plus Const 2016 1.0 2 2017-11-08 2017-11-08
Somatic Responses Pattern Seeking 2017 0.0 0 2017-11-09 Never
Minisystem Life Above Ground 2011 2.0 0 2017-11-10 Never
Karsten Pflum Love Canticles 2017 4.0 13 2018-01-13 2018-02-10
Chapelier Fou Kalia 2016 1.0 14 2018-01-25 2018-01-25
Ilkae Light Industry 2010 1.0 8 2018-01-26 2018-01-26
Julien Mier Untangle The Roots 2017 5.0 3 2018-01-27 2018-04-12
Christian Kleine Electronic Music from the Lost World 1998-2001 2001 1.1 18 2018-02-01 2018-02-08
Broca Cactus Sampler 0 1.0 1 2018-02-08 2018-02-08
Broca Minú 2006 0.0 1 2018-02-08 2018-02-08
Clark Death Peak 2017 1.0 2 2018-02-09 2018-04-12
A Guy Called Gerald To All Things What They Need 2004 1.0 2 2018-02-17 2018-02-17
Onsy Freq 255 2017 2.0 5 2018-02-23 2018-04-10
various Speechless Electronica, Vol. 1 2017 2.0 13 2018-03-20 2018-07-16
Lilienthal Castor & Pollux 1998 4.0 40 2018-03-24 2018-07-17
Nenormalizm Crew Async 2017 1.0 12 2018-06-12 2018-07-16
Pensees Sleepaway 2017 10.0 44 2018-07-12 2018-09-18
Data Rebel Escape Velocity 2018 7.0 24 2018-07-31 2020-04-26
Ruxpin Fields Of View 2018 1.1 10 2018-08-02 2018-10-26
Ruxpin Avalon 2003 6.0 22 2018-10-03 2018-12-02
EOD Named 2018 2.0 13 2018-10-12 2018-11-16
Aphex Twin Collapse 2018 0.0 2 2018-10-20 2018-10-20
The Future Sound Of London From The Archives Vol. 9 2018 4.0 45 2018-10-25 2020-04-05
Aleksi Perälä Sunshine 2 2018 3.0 15 2018-11-17 2019-03-02
d'Arcangelo Somewhere In Time 2018 1.0 4 2018-11-25 2018-11-25
The Polish Ambassador Twilight Safari 2018 4.0 7 2018-11-25 2019-02-11
Keiss Tau Ceti 2018 4.0 8 2019-02-09 2019-02-11
Ochre Project Caelus 2018 1.0 2 2019-02-13 2019-02-13
Galaktlan En Garde 2018 2.0 9 2019-02-15 2019-02-15
Risssing Music For MNMN 2018 9.0 8 2019-03-27 2019-10-05
Risssing The Four Seasons 2014 0.0 2 2019-03-30 2019-03-30
Kattoo Places 2004 4.0 6 2019-03-31 2019-03-31
Kattoo Hang On To A Dream 2006 0.0 10 2019-03-31 2019-03-31
Kattoo l--ll-ll l-ll ll-ll- l-ll- l--l-ll l--l-ll ll-- ll-- l- l--l- 2010 1.0 1 2019-03-31 2019-03-31
Circa State Homegrown 2017 2.0 5 2019-04-01 2019-04-01
Maelstrom ALPH4 2018 2.0 1 2019-04-06 2019-04-06
Oscar Hill, Justin Black Futurist 2017 4.0 28 2019-04-20 2019-07-04
Plaid Polymer 2019 0.0 2 2019-09-28 2019-09-28
various Organic Electronica 2018 1.0 6 2019-11-08 2019-11-26
Telefon Tel Aviv Dreams Are Not Enough 2019 0.0 2 2019-11-20 2019-11-20
Apparat LP5 2019 0.0 4 2019-11-27 2019-11-27
Csum Anaerobica 2019 3.0 8 2019-11-27 2019-12-28
Tycho Weather 2019 3.0 7 2019-12-01 2020-01-13
Tim Koch Spinifex 2018 0.0 1 2019-12-26 2019-12-26
various Future Tech 2019 4.0 9 2019-12-27 2020-06-07
Data Rebel Syzygy 2019 6.0 23 2020-01-12 2020-06-07
Data Rebel Upward Falling 2018 2.0 6 2020-01-12 2020-01-12
various The Condition Of Muzak 2 2006 3.0 4 2020-01-25 2020-06-28
Ignatius Legacy Systems 2017 0.0 1 2020-04-07 2020-04-07
The Flashbulb Our Simulacra 2020 4.0 38 2020-04-07 2020-09-18
Vector Lovers Road. To Ruin 2018 3.0 5 2020-04-08 2020-07-04
Four Tet Sixteen Oceans 2020 4.0 29 2020-04-08 2020-09-18
Squarepusher Be Up A Hello 2020 0.0 0 2020-04-08 Never
Data Rebel Lyra 2020 3.0 12 2020-04-11 2020-07-20
Tycho Simulcast 2020 0.0 0 2020-04-11 Never
Huron Tracks 2008 - 2010 2017 8.0 11 2020-05-11 2020-07-24
various Espace Au Jardin Edition Rouge 2018 4.0 2 2020-05-11 2020-07-22
Proem Until Here for Years 2019 5.0 6 2020-05-30 2020-09-18
Derek Carr The Digital Space Race 2008 3.0 6 2020-06-11 2020-07-21
various Found Sound 2018 6.2 11 2020-07-17 2020-09-15
Fourge Reclamation 2018 3.0 4 2020-07-17 2020-09-15
Abide Serene 0065 2005 0.0 1 2020-07-22 2020-07-22
Caramel Chameleon Adolescend 2018 1.1 14 2020-07-23 2020-09-12
Kilowatts Eight Experiments 2020 3.0 3 2020-08-07 2020-10-09
Eedl Unstored 2020 2.0 2 2020-08-07 2020-09-18
mu-Ziq Challenge Me Foolish 2018 0.0 0 2020-08-08 Never
mu-Ziq Pthagonal 2017 0.0 0 2020-08-08 Never
SN-A Distance 2018 2.0 3 2020-08-11 2020-10-10
Ital Tek Dream Boundary 2020 0.0 1 2020-09-01 2020-09-01
Anklepants Pollen 2018 1.0 1 2020-09-01 2020-09-01
Carl Finlow Introspective 2018 2.0 3 2020-09-02 2020-10-09
Dream Twice Ellipse 2018 1.0 0 2020-09-09 Never
Kreggo Introspective Dance Music 2018 1.0 0 2020-10-07 Never
Karsten Pflum Revealed 2019 1.0 0 2020-10-09 Never
Pensees Origin 2014 1.0 0 2020-10-17 Never
Digitonal Set The Weather Fair 2020 3.0 3 2020-10-27 2020-12-21
Huron Fissure 2016 1.0 2 2020-10-30 2021-01-23
Metamatics Project Unison 2000 1.0 2 2020-11-01 2021-01-23
Murya Northern Lights 2019 4.0 11 2020-12-01 2021-02-10
Saul Stokes Local Crowd 2017 1.0 0 2020-12-16 Never
Ochre Understory 2020 0.0 1 2021-01-03 2021-01-03
Spoq Cinnamon 2018 2.0 10 2021-01-03 2021-04-15
Steve Hauschildt Dissolvi 2018 3.0 14 2021-01-25 2021-04-15
Data Rebel Nuance 2020 2.0 4 2021-01-26 2021-04-15
Fomatic Marion 2019 0.0 0 2021-01-27 Never
Fomatic Not Enough Data To Feel 2018 0.0 0 2021-01-27 Never
Mouse On Mars AAI 2021 0.0 0 2021-04-14 Never
Kick Out The JAMS! Aulismedia Music Library 2018.02.18 "Space Oddity" © Sergey Mishenev 2003-2021